Aérodrome :
LOGIN :

S'inscrire | Disclaimer

   EN    FR    IT 

 










Légende :    VFR   VFR Marginal   IFR   IFR Intensif   IFR Très Intensif
Visi : 
Plafond : 
>= 8 km
>= 3000ft
5 à 8 km
1000 à 3000 ft
1500m à 5 km
500 à 1000 ft
800 à 1500m
200 à 500 ft
< 800m
< 200 ft
Symboles :   Orages  Brouillard  Fortes neiges  Fortes précipitations  Vent > 20 kt
SIGMETs :   Divers  Orages  Givrage  Turbulence  Onde Orograph.  Cendres Volcan.






- Altitude de l'aérodrome : 622 ft
- Code IATA : BRS


EGGD - Bristol Int.

DERNIER METAR :
  • 191950Z AUTO 27006KT 9999 NCD 19/17 Q1014

METARs EXPIRÉS :
  • 191920Z AUTO 27007KT 9999 NCD 20/17 Q1014
  • 191850Z AUTO 27009KT 9999 NCD 21/17 Q1014
  • 191820Z AUTO 27010KT 9999 NCD 21/16 Q1014
  • 191750Z AUTO 24008KT 210V270 9999 NCD 22/17 Q1014
  • 191720Z AUTO 25011KT 9999 NCD 23/17 Q1014
  • 191650Z AUTO 25007KT 9999 NCD 24/17 Q1014
  • 191620Z AUTO 24007KT 210V270 9999 NCD 25/18 Q1014
  • 191550Z AUTO 26006KT 220V300 9999 NCD 26/18 Q1015
  • 191520Z AUTO 22006KT 180V280 9999 NCD 26/18 Q1015

TAF TAF EGGD
Valide du 19 à 18h jusqu'au 20 à 18h UTC


191704Z 1918/2018 25008KT 9999 FEW040
PROB30
TEMPO 1921/1923 BKN010
TEMPO 1923/2004 BKN004
PROB30
TEMPO 2004/2012 6000 -RADZ BKN006
TEMPO 2012/2018 6000 RA -RADZ BKN010
PROB30
TEMPO 2012/2016 3000 +TSRA BKN006 BKN015CB
PROB40
TEMPO 2016/2018 3000 RADZ BR BKN004
ATIS : +44 1275 473 666



MET'MAP, la Météo Aéronautique d'un coup d'oeil ! - Copyright ORBIFLY Décembre 2007 - Disclaimer

ORBIFLY MET'MAP TEAM :

Programmation & Développement : Alexandra Zaïnal
Sur une idée originale de : Baudouin d'Aumeries
Soutien technique & logistique : Manuel Goepfert
Assistance : Marc-Olivier Méhu




SOURCES & CREDITS :

   NOAA